createdAt,value
2022-12-14T00:01:33.295Z,51.86
2022-12-14T00:04:00.077Z,51.85
2022-12-14T00:06:29.284Z,51.52
2022-12-14T00:08:57.903Z,51.99
2022-12-14T00:11:25.028Z,51.49
2022-12-14T00:13:53.715Z,51.85
2022-12-14T00:16:21.238Z,51.42
2022-12-14T00:18:52.554Z,51.88
2022-12-14T00:21:19.702Z,51.67
2022-12-14T00:23:46.907Z,51.70
2022-12-14T00:26:14.881Z,51.38
2022-12-14T00:28:42.378Z,51.51
2022-12-14T00:31:09.639Z,51.44
2022-12-14T00:33:36.607Z,51.33
2022-12-14T00:36:04.174Z,51.47
2022-12-14T00:38:30.961Z,51.53
2022-12-14T00:40:58.102Z,51.47
2022-12-14T00:43:24.865Z,51.36
2022-12-14T00:45:51.889Z,51.67
2022-12-14T00:48:19.597Z,51.14
2022-12-14T00:50:48.799Z,51.19
2022-12-14T00:53:16.189Z,51.42
2022-12-14T00:55:44.554Z,51.73
2022-12-14T00:58:19.228Z,51.26
2022-12-14T01:00:47.325Z,51.17
2022-12-14T01:03:14.161Z,51.60
2022-12-14T01:05:41.420Z,51.51
2022-12-14T01:08:08.190Z,51.58
2022-12-14T01:10:38.707Z,51.70
2022-12-14T01:13:05.420Z,51.80
2022-12-14T01:15:34.985Z,51.57
2022-12-14T01:18:01.715Z,51.85
2022-12-14T01:20:28.751Z,51.63
2022-12-14T01:22:56.253Z,51.32
2022-12-14T01:25:23.344Z,51.42
2022-12-14T01:27:50.170Z,51.61
2022-12-14T01:30:19.307Z,51.85
2022-12-14T01:32:46.771Z,51.82
2022-12-14T01:35:13.891Z,51.42
2022-12-14T01:37:40.667Z,51.54
2022-12-14T01:40:08.485Z,51.66
2022-12-14T01:42:37.798Z,51.58
2022-12-14T01:45:05.736Z,51.58
2022-12-14T01:47:41.758Z,51.59
2022-12-14T01:50:40.075Z,51.81
2022-12-14T01:53:08.804Z,51.58
2022-12-14T01:55:48.734Z,51.60
2022-12-14T01:58:19.074Z,51.61
2022-12-14T02:00:46.054Z,51.75
2022-12-14T02:03:21.756Z,51.93
2022-12-14T02:05:55.754Z,51.88
2022-12-14T02:08:22.848Z,51.72
2022-12-14T02:10:50.162Z,51.78
2022-12-14T02:13:25.989Z,52.08
2022-12-14T02:15:53.413Z,51.87
2022-12-14T02:18:25.643Z,51.88
2022-12-14T02:20:55.567Z,51.63
2022-12-14T02:23:53.140Z,51.84
2022-12-14T02:26:43.482Z,51.75
2022-12-14T02:29:19.438Z,52.19
2022-12-14T02:32:31.306Z,51.92
2022-12-14T02:35:09.967Z,52.01
2022-12-14T02:37:45.857Z,52.32
2022-12-14T02:40:34.846Z,51.76
2022-12-14T02:43:06.295Z,51.95
2022-12-14T02:45:47.627Z,52.21
2022-12-14T02:48:22.742Z,51.83
2022-12-14T02:51:19.943Z,51.89
2022-12-14T02:54:38.798Z,51.63
2022-12-14T02:57:13.895Z,51.95
2022-12-14T02:59:40.822Z,52.11
2022-12-14T03:02:07.658Z,51.87
2022-12-14T03:04:45.749Z,51.92
2022-12-14T03:07:36.845Z,51.90
2022-12-14T03:10:09.472Z,51.76
2022-12-14T03:12:37.829Z,52.02
2022-12-14T03:15:05.438Z,52.06
2022-12-14T03:17:32.157Z,51.66
2022-12-14T03:20:12.992Z,51.91
2022-12-14T03:22:42.957Z,51.81
2022-12-14T03:25:14.442Z,51.88
2022-12-14T03:27:44.698Z,51.79
2022-12-14T03:30:13.791Z,51.81
2022-12-14T03:32:59.827Z,52.11
2022-12-14T03:35:32.766Z,52.01
2022-12-14T03:38:03.845Z,51.75
2022-12-14T03:40:33.873Z,52.02
2022-12-14T03:43:26.168Z,51.88
2022-12-14T03:46:02.099Z,51.46
2022-12-14T03:48:41.662Z,51.56
2022-12-14T03:51:36.730Z,51.55
2022-12-14T03:54:33.040Z,51.48
2022-12-14T03:57:07.068Z,51.08
2022-12-14T04:00:06.386Z,51.45
2022-12-14T04:02:40.841Z,50.93
2022-12-14T04:05:10.398Z,51.13
2022-12-14T04:07:44.077Z,50.73
2022-12-14T04:10:35.252Z,51.10
2022-12-14T04:13:27.319Z,50.95
2022-12-14T04:16:13.070Z,51.31
2022-12-14T04:19:01.444Z,51.55
2022-12-14T04:21:32.566Z,51.01
2022-12-14T04:24:20.995Z,50.89
2022-12-14T04:26:56.925Z,50.27
2022-12-14T04:29:47.307Z,49.98
2022-12-14T04:32:35.982Z,50.38
2022-12-14T04:35:24.494Z,50.60
2022-12-14T04:37:56.195Z,50.25
2022-12-14T04:40:34.664Z,50.17
2022-12-14T04:43:10.439Z,49.67
2022-12-14T04:45:46.921Z,49.86
2022-12-14T04:48:27.603Z,49.71
2022-12-14T04:51:06.368Z,49.81
2022-12-14T04:53:33.088Z,49.88
2022-12-14T04:56:09.428Z,49.76
2022-12-14T04:58:36.244Z,49.98
2022-12-14T05:01:12.669Z,50.54
2022-12-14T05:04:12.475Z,49.64
2022-12-14T05:07:02.980Z,49.24
2022-12-14T05:09:32.176Z,49.62
2022-12-14T05:12:07.647Z,49.50
2022-12-14T05:15:05.683Z,49.06
2022-12-14T05:17:36.370Z,48.97
2022-12-14T05:20:03.429Z,48.94
2022-12-14T05:22:30.452Z,48.40
2022-12-14T05:24:57.388Z,49.11
2022-12-14T05:27:24.430Z,49.57
2022-12-14T05:29:51.128Z,49.87
2022-12-14T05:32:18.223Z,49.81
2022-12-14T05:34:44.931Z,49.69
2022-12-14T05:37:18.002Z,49.01
2022-12-14T05:39:45.258Z,49.67
2022-12-14T05:42:12.303Z,50.86
2022-12-14T05:44:39.114Z,50.62
2022-12-14T05:47:06.152Z,50.31
2022-12-14T05:49:32.890Z,50.35
2022-12-14T05:51:59.998Z,50.30
2022-12-14T05:54:26.761Z,49.82
2022-12-14T05:56:53.794Z,49.48
2022-12-14T05:59:20.550Z,49.75
2022-12-14T06:01:49.767Z,49.87
2022-12-14T06:04:17.915Z,49.71
2022-12-14T06:06:44.991Z,50.25
2022-12-14T06:09:13.267Z,49.22
2022-12-14T06:11:41.092Z,49.57
2022-12-14T06:14:08.174Z,49.70
2022-12-14T06:16:35.460Z,49.87
2022-12-14T06:19:03.527Z,49.79
2022-12-14T06:21:32.795Z,49.96
2022-12-14T06:23:59.606Z,49.93
2022-12-14T06:26:27.203Z,49.95
2022-12-14T06:28:53.954Z,49.73
2022-12-14T06:31:22.679Z,49.75
2022-12-14T06:33:49.799Z,49.86
2022-12-14T06:36:33.838Z,49.64
2022-12-14T06:39:02.913Z,50.14
2022-12-14T06:41:29.961Z,49.96
2022-12-14T06:43:57.234Z,50.17
2022-12-14T06:46:24.521Z,49.69
2022-12-14T06:48:52.293Z,49.67
2022-12-14T06:51:19.994Z,50.11
2022-12-14T06:53:46.921Z,50.00
2022-12-14T06:56:17.607Z,50.05
2022-12-14T06:58:44.569Z,50.22
2022-12-14T07:01:13.431Z,50.06
2022-12-14T07:03:40.479Z,49.41
2022-12-14T07:06:08.294Z,49.38
2022-12-14T07:08:36.762Z,48.95
2022-12-14T07:11:05.421Z,49.50
2022-12-14T07:13:32.181Z,49.37
2022-12-14T07:15:59.687Z,49.15
2022-12-14T07:18:26.639Z,49.09
2022-12-14T07:20:57.343Z,48.56
2022-12-14T07:23:27.876Z,48.60
2022-12-14T07:26:04.694Z,49.18
2022-12-14T07:28:31.787Z,49.46
2022-12-14T07:30:59.378Z,49.14
2022-12-14T07:33:26.593Z,49.57
2022-12-14T07:36:11.175Z,49.75
2022-12-14T07:38:38.795Z,49.55
2022-12-14T07:41:15.523Z,49.72
2022-12-14T07:43:46.304Z,50.21
2022-12-14T07:46:18.973Z,50.41
2022-12-14T07:48:46.994Z,50.48
2022-12-14T07:51:15.545Z,50.70
2022-12-14T07:53:42.432Z,50.27
2022-12-14T07:56:19.969Z,50.16
2022-12-14T07:58:46.805Z,50.31
2022-12-14T08:01:21.310Z,50.38
2022-12-14T08:03:55.917Z,50.54
2022-12-14T08:06:23.969Z,50.43
2022-12-14T08:08:51.521Z,50.22
2022-12-14T08:11:18.788Z,50.13
2022-12-14T08:13:46.918Z,49.93
2022-12-14T08:16:15.440Z,50.42
2022-12-14T08:18:42.752Z,50.95
2022-12-14T08:21:10.780Z,50.69
2022-12-14T08:23:37.689Z,51.32
2022-12-14T08:26:06.098Z,50.95
2022-12-14T08:28:34.927Z,50.80
2022-12-14T08:31:06.446Z,50.51
2022-12-14T08:33:34.488Z,50.75
2022-12-14T08:36:06.125Z,50.97
2022-12-14T08:38:32.850Z,50.88
2022-12-14T08:41:04.330Z,50.57
2022-12-14T08:43:31.501Z,50.89
2022-12-14T08:45:59.016Z,50.87
2022-12-14T08:48:25.851Z,50.66
2022-12-14T08:50:53.047Z,50.44
2022-12-14T08:53:20.093Z,50.13
2022-12-14T08:55:47.100Z,50.28
2022-12-14T08:58:14.054Z,50.18
2022-12-14T09:00:41.150Z,50.41
2022-12-14T09:03:08.058Z,50.37
2022-12-14T09:05:35.499Z,49.56
2022-12-14T09:08:02.282Z,49.64
2022-12-14T09:10:29.352Z,50.25
2022-12-14T09:12:56.284Z,50.25
2022-12-14T09:15:23.342Z,50.20
2022-12-14T09:17:51.044Z,50.17
2022-12-14T09:20:19.036Z,50.52
2022-12-14T09:22:46.208Z,50.24
2022-12-14T09:25:13.802Z,50.00
2022-12-14T09:27:40.542Z,49.09
2022-12-14T09:30:08.046Z,49.43
2022-12-14T09:32:34.794Z,49.63
2022-12-14T09:35:01.826Z,49.24
2022-12-14T09:37:28.655Z,49.63
2022-12-14T09:39:55.748Z,49.55
2022-12-14T09:42:53.327Z,49.37
2022-12-14T09:45:32.571Z,49.28
2022-12-14T09:48:15.359Z,49.43
2022-12-14T09:50:42.355Z,49.88
2022-12-14T09:53:11.998Z,49.47
2022-12-14T09:55:59.633Z,49.66
2022-12-14T09:58:28.547Z,49.90
2022-12-14T10:01:22.325Z,49.97
2022-12-14T10:03:49.924Z,50.24
2022-12-14T10:06:44.956Z,49.73
2022-12-14T10:09:27.603Z,50.36
2022-12-14T10:12:21.007Z,49.61
2022-12-14T10:15:05.680Z,49.78
2022-12-14T10:17:40.191Z,49.97
2022-12-14T10:20:19.046Z,50.02
2022-12-14T10:22:47.087Z,50.22
2022-12-14T10:25:24.936Z,49.62
2022-12-14T10:28:12.938Z,49.67
2022-12-14T10:30:43.065Z,50.11
2022-12-14T10:33:23.325Z,49.77
2022-12-14T10:35:51.396Z,49.18
2022-12-14T10:38:26.417Z,49.83
2022-12-14T10:41:12.245Z,49.53
2022-12-14T10:43:58.149Z,49.66
2022-12-14T10:46:56.039Z,49.87
2022-12-14T10:49:40.332Z,49.71
2022-12-14T10:52:14.905Z,49.95
2022-12-14T10:54:48.158Z,49.70
2022-12-14T10:57:22.511Z,49.81
2022-12-14T11:00:07.354Z,49.79
2022-12-14T11:02:38.975Z,50.00
2022-12-14T11:05:57.612Z,50.12
2022-12-14T11:08:39.447Z,50.12
2022-12-14T11:11:21.013Z,49.95
2022-12-14T11:14:08.007Z,49.98
2022-12-14T11:16:37.589Z,50.33
2022-12-14T11:19:06.467Z,49.98
2022-12-14T11:21:37.652Z,49.85
2022-12-14T11:24:04.936Z,50.31
2022-12-14T11:26:39.734Z,49.91
2022-12-14T11:29:07.510Z,49.93
2022-12-14T11:31:39.418Z,50.06
2022-12-14T11:34:07.383Z,49.97
2022-12-14T11:36:38.226Z,50.01
2022-12-14T11:39:14.591Z,49.72
2022-12-14T11:42:00.883Z,49.78
2022-12-14T11:44:33.242Z,49.63
2022-12-14T11:47:00.445Z,50.06
2022-12-14T11:49:40.190Z,50.07
2022-12-14T11:52:11.139Z,50.10
2022-12-14T11:54:42.354Z,49.96
2022-12-14T11:57:37.079Z,49.72
2022-12-14T12:00:23.840Z,49.67
2022-12-14T12:03:02.178Z,49.57
2022-12-14T12:05:31.466Z,49.81
2022-12-14T12:07:58.954Z,49.96
2022-12-14T12:10:37.558Z,50.28
2022-12-14T12:13:05.719Z,49.79
2022-12-14T12:15:40.828Z,50.13
2022-12-14T12:18:13.647Z,49.73
2022-12-14T12:20:44.502Z,49.79
2022-12-14T12:23:17.767Z,49.86
2022-12-14T12:25:45.043Z,49.35
2022-12-14T12:28:15.391Z,49.97
2022-12-14T12:30:43.729Z,49.63
2022-12-14T12:33:31.715Z,49.93
2022-12-14T12:36:02.081Z,49.81
2022-12-14T12:38:49.961Z,50.02
2022-12-14T12:41:45.761Z,50.32
2022-12-14T12:44:35.026Z,50.36
2022-12-14T12:47:32.176Z,49.63
2022-12-14T12:50:10.637Z,50.14
2022-12-14T12:53:03.963Z,49.87
2022-12-14T12:55:51.930Z,50.17
2022-12-14T12:58:38.017Z,50.03
2022-12-14T13:01:17.886Z,50.17
2022-12-14T13:03:46.051Z,49.99
2022-12-14T13:06:53.798Z,49.69
2022-12-14T13:09:31.803Z,49.53
2022-12-14T13:11:58.830Z,49.96
2022-12-14T13:14:38.663Z,49.70
2022-12-14T13:17:06.659Z,49.57
2022-12-14T13:19:51.620Z,49.96
2022-12-14T13:22:29.081Z,50.16
2022-12-14T13:24:59.741Z,50.25
2022-12-14T13:27:40.758Z,50.25
2022-12-14T13:30:16.567Z,50.35
2022-12-14T13:33:23.207Z,50.17
2022-12-14T13:36:14.592Z,50.22
2022-12-14T13:38:53.699Z,49.64
2022-12-14T13:41:41.756Z,49.92
2022-12-14T13:44:31.075Z,49.80
2022-12-14T13:47:05.827Z,50.31
2022-12-14T13:49:33.041Z,49.89
2022-12-14T13:51:59.834Z,50.09
2022-12-14T13:54:29.668Z,50.06
2022-12-14T13:57:11.491Z,50.22
2022-12-14T13:59:42.376Z,50.24
2022-12-14T14:02:27.905Z,50.17
2022-12-14T14:05:20.220Z,50.21
2022-12-14T14:07:57.031Z,50.25
2022-12-14T14:10:42.311Z,50.25
2022-12-14T14:13:27.567Z,50.26
2022-12-14T14:16:27.351Z,50.62
2022-12-14T14:19:11.386Z,50.17
2022-12-14T14:22:14.040Z,50.30
2022-12-14T14:25:00.697Z,50.11
2022-12-14T14:28:03.496Z,49.84
2022-12-14T14:30:45.928Z,50.34
2022-12-14T14:33:46.818Z,50.39
2022-12-14T14:36:25.394Z,50.51
2022-12-14T14:38:54.308Z,50.42
2022-12-14T14:41:23.336Z,50.64
2022-12-14T14:44:01.405Z,50.41
2022-12-14T14:46:38.336Z,50.45
2022-12-14T14:49:05.709Z,50.51
2022-12-14T14:51:36.197Z,50.64
2022-12-14T14:55:03.554Z,50.63
2022-12-14T14:57:27.186Z,50.58
2022-12-14T14:59:54.718Z,50.62
2022-12-14T15:02:30.826Z,50.49
2022-12-14T15:05:17.422Z,50.64
2022-12-14T15:07:44.976Z,50.35
2022-12-14T15:10:37.775Z,50.42
2022-12-14T15:13:14.829Z,50.74
2022-12-14T15:15:46.150Z,50.54
2022-12-14T15:18:25.153Z,50.26
2022-12-14T15:20:59.503Z,50.19
2022-12-14T15:23:30.288Z,50.25
2022-12-14T15:25:59.289Z,50.43
2022-12-14T15:28:26.381Z,50.25
2022-12-14T15:30:55.129Z,50.78
2022-12-14T15:33:40.022Z,50.63
2022-12-14T15:36:10.869Z,50.31
2022-12-14T15:38:38.000Z,50.53
2022-12-14T15:41:15.904Z,50.83
2022-12-14T15:43:44.788Z,50.11
2022-12-14T15:46:19.544Z,50.50
2022-12-14T15:48:46.556Z,50.33
2022-12-14T15:51:16.764Z,50.10
2022-12-14T15:53:50.301Z,50.08
2022-12-14T15:56:37.954Z,50.55
2022-12-14T15:59:17.885Z,50.43
2022-12-14T16:01:54.777Z,50.01
2022-12-14T16:04:23.090Z,50.37
2022-12-14T16:07:15.030Z,50.26
2022-12-14T16:09:44.258Z,50.38
2022-12-14T16:12:21.672Z,50.38
2022-12-14T16:14:54.345Z,50.64
2022-12-14T16:17:33.078Z,50.35
2022-12-14T16:20:01.915Z,50.48
2022-12-14T16:22:30.093Z,50.27
2022-12-14T16:25:16.914Z,51.18
2022-12-14T16:27:50.018Z,52.53
2022-12-14T16:30:31.251Z,52.46
2022-12-14T16:33:14.627Z,52.30
2022-12-14T16:35:41.451Z,52.27
2022-12-14T16:38:12.254Z,52.00
2022-12-14T16:40:52.847Z,52.04
2022-12-14T16:43:39.990Z,52.04
2022-12-14T16:46:09.713Z,52.63
2022-12-14T16:48:41.644Z,51.88
2022-12-14T16:51:32.995Z,51.64
2022-12-14T16:54:06.175Z,51.92
2022-12-14T16:56:33.482Z,51.75
2022-12-14T16:59:06.090Z,51.78
2022-12-14T17:01:45.985Z,51.50
2022-12-14T17:04:13.727Z,51.85
2022-12-14T17:06:56.738Z,51.99
2022-12-14T17:09:25.261Z,51.54
2022-12-14T17:11:53.211Z,51.83
2022-12-14T17:14:20.310Z,51.82
2022-12-14T17:16:48.046Z,51.97
2022-12-14T17:19:23.352Z,51.74
2022-12-14T17:21:50.376Z,51.53
2022-12-14T17:24:18.770Z,51.98
2022-12-14T17:26:45.866Z,51.50
2022-12-14T17:29:24.532Z,51.74
2022-12-14T17:31:54.611Z,51.61
2022-12-14T17:34:23.129Z,51.29
2022-12-14T17:36:50.171Z,51.53
2022-12-14T17:39:17.243Z,51.39
2022-12-14T17:41:45.019Z,51.75
2022-12-14T17:44:16.558Z,52.05
2022-12-14T17:46:43.704Z,51.92
2022-12-14T17:49:14.608Z,51.99
2022-12-14T17:51:42.533Z,51.78
2022-12-14T17:54:17.669Z,51.33
2022-12-14T17:56:44.789Z,51.40
2022-12-14T17:59:12.349Z,51.63
2022-12-14T18:01:40.102Z,51.71
2022-12-14T18:04:08.193Z,51.57
2022-12-14T18:06:35.388Z,51.73
2022-12-14T18:09:05.152Z,51.40
2022-12-14T18:11:32.141Z,51.61
2022-12-14T18:13:59.436Z,51.71
2022-12-14T18:16:28.808Z,51.40
2022-12-14T18:18:56.380Z,51.19
2022-12-14T18:21:25.169Z,51.38
2022-12-14T18:23:52.491Z,51.81
2022-12-14T18:26:22.496Z,51.91
2022-12-14T18:28:53.767Z,51.73
2022-12-14T18:31:23.728Z,51.67
2022-12-14T18:33:50.758Z,51.63
2022-12-14T18:36:19.910Z,51.48
2022-12-14T18:38:49.511Z,51.58
2022-12-14T18:41:17.923Z,51.71
2022-12-14T18:43:45.223Z,51.49
2022-12-14T18:46:12.351Z,51.36
2022-12-14T18:48:40.594Z,51.17
2022-12-14T18:51:07.524Z,51.42
2022-12-14T18:53:34.901Z,51.71
2022-12-14T18:56:02.185Z,51.33
2022-12-14T18:58:29.335Z,51.64
2022-12-14T19:00:57.753Z,51.74
2022-12-14T19:03:25.165Z,51.72
2022-12-14T19:05:52.263Z,51.65
2022-12-14T19:08:19.343Z,51.56
2022-12-14T19:10:47.953Z,51.87
2022-12-14T19:13:23.262Z,51.30
2022-12-14T19:15:52.088Z,51.63
2022-12-14T19:18:19.214Z,51.64
2022-12-14T19:20:45.960Z,51.40
2022-12-14T19:23:17.423Z,51.47
2022-12-14T19:25:47.080Z,51.30
2022-12-14T19:31:01.657Z,51.75
2022-12-14T19:33:29.400Z,51.54
2022-12-14T19:35:56.425Z,51.31
2022-12-14T19:38:23.494Z,51.83
2022-12-14T19:41:01.026Z,51.36
2022-12-14T19:43:29.655Z,51.55
2022-12-14T19:45:56.914Z,51.23
2022-12-14T19:48:24.145Z,51.86
2022-12-14T19:50:50.916Z,51.76
2022-12-14T19:53:23.224Z,51.37
2022-12-14T19:55:52.394Z,51.50
2022-12-14T19:58:22.188Z,51.58
2022-12-14T20:00:49.960Z,51.65
2022-12-14T20:03:17.561Z,51.32
2022-12-14T20:05:54.950Z,51.37
2022-12-14T20:08:22.741Z,51.33
2022-12-14T20:10:49.639Z,51.72
2022-12-14T20:13:16.645Z,51.50
2022-12-14T20:15:53.966Z,51.52
2022-12-14T20:18:21.765Z,51.45
2022-12-14T20:20:49.626Z,51.59
2022-12-14T20:23:18.292Z,51.63
2022-12-14T20:25:45.073Z,51.58
2022-12-14T20:28:12.170Z,51.49
2022-12-14T20:30:45.931Z,51.62
2022-12-14T20:33:13.314Z,51.84
2022-12-14T20:35:40.198Z,51.45
2022-12-14T20:38:07.243Z,51.81
2022-12-14T20:40:38.468Z,51.67
2022-12-14T20:43:05.991Z,51.81
2022-12-14T20:45:37.653Z,51.43
2022-12-14T20:48:05.249Z,51.84
2022-12-14T20:50:31.973Z,51.43
2022-12-14T20:52:59.050Z,51.44
2022-12-14T20:55:25.770Z,51.73
2022-12-14T20:57:52.826Z,51.54
2022-12-14T21:00:19.550Z,51.79
2022-12-14T21:02:46.787Z,51.87
2022-12-14T21:05:13.623Z,51.62
2022-12-14T21:07:40.903Z,51.96
2022-12-14T21:10:08.142Z,52.98
2022-12-14T21:12:35.323Z,53.97
2022-12-14T21:15:02.225Z,53.38
2022-12-14T21:17:29.933Z,53.41
2022-12-14T21:19:57.349Z,53.46
2022-12-14T21:22:26.138Z,53.31
2022-12-14T21:25:03.597Z,53.35
2022-12-14T21:27:32.393Z,53.23
2022-12-14T21:30:00.441Z,52.92
2022-12-14T21:32:27.926Z,52.97
2022-12-14T21:34:54.706Z,53.32
2022-12-14T21:37:22.093Z,53.11
2022-12-14T21:39:54.281Z,52.98
2022-12-14T21:42:25.701Z,53.05
2022-12-14T21:44:52.955Z,53.23
2022-12-14T21:47:21.918Z,53.21
2022-12-14T21:49:49.108Z,53.00
2022-12-14T21:52:18.298Z,53.12
2022-12-14T21:54:45.099Z,53.07
2022-12-14T21:57:34.507Z,53.24
2022-12-14T22:00:01.695Z,53.50
2022-12-14T22:02:29.159Z,53.04
2022-12-14T22:04:56.378Z,53.38
2022-12-14T22:07:25.590Z,53.40
2022-12-14T22:09:52.350Z,53.33
2022-12-14T22:12:19.459Z,53.25
2022-12-14T22:14:46.211Z,53.50
2022-12-14T22:17:13.696Z,53.39
2022-12-14T22:19:40.491Z,53.38
2022-12-14T22:22:07.570Z,53.57
2022-12-14T22:24:34.311Z,53.38
2022-12-14T22:27:01.827Z,53.29
2022-12-14T22:29:28.844Z,53.13
2022-12-14T22:31:56.001Z,53.67
2022-12-14T22:34:23.200Z,53.13
2022-12-14T22:36:50.787Z,53.40
2022-12-14T22:39:17.798Z,53.53
2022-12-14T22:41:45.120Z,53.17
2022-12-14T22:44:12.805Z,53.65
2022-12-14T22:46:40.203Z,53.71
2022-12-14T22:49:06.965Z,53.57
2022-12-14T22:51:34.019Z,53.14
2022-12-14T22:54:00.853Z,53.52
2022-12-14T22:56:38.371Z,53.35
2022-12-14T22:59:07.836Z,53.75
2022-12-14T23:01:35.064Z,53.26
2022-12-14T23:04:01.968Z,53.74
2022-12-14T23:06:29.082Z,53.38
2022-12-14T23:09:14.475Z,53.31
2022-12-14T23:12:00.111Z,53.48
2022-12-14T23:14:45.582Z,53.49
2022-12-14T23:17:31.018Z,53.49
2022-12-14T23:20:16.465Z,53.64
2022-12-14T23:23:02.220Z,53.74
2022-12-14T23:25:47.256Z,53.75
2022-12-14T23:28:32.920Z,53.73
2022-12-14T23:31:18.324Z,53.76
2022-12-14T23:34:04.079Z,53.44
2022-12-14T23:36:49.468Z,53.94
2022-12-14T23:39:34.989Z,53.98
2022-12-14T23:42:20.463Z,54.03
2022-12-14T23:45:06.130Z,53.74
2022-12-14T23:47:51.396Z,53.70
2022-12-14T23:50:36.840Z,53.49
2022-12-14T23:53:25.655Z,53.52
2022-12-14T23:56:11.460Z,54.03
2022-12-14T23:58:56.831Z,53.90
